createdAt,value
2017-03-06T00:00:03.155Z,997.83
2017-03-06T00:05:03.479Z,997.85
2017-03-06T00:10:03.351Z,997.86
2017-03-06T00:15:03.249Z,997.82
2017-03-06T00:20:03.105Z,997.86
2017-03-06T00:25:03.009Z,997.81
2017-03-06T00:30:02.730Z,997.82
2017-03-06T00:35:03.413Z,997.92
2017-03-06T00:40:02.990Z,997.96
2017-03-06T00:45:03.697Z,997.99
2017-03-06T00:50:10.509Z,998.08
2017-03-06T00:55:03.230Z,998.1
2017-03-06T01:00:03.327Z,998.06
2017-03-06T01:05:03.721Z,998.14
2017-03-06T01:10:03.466Z,998.08
2017-03-06T01:15:03.154Z,998.13
2017-03-06T01:20:02.829Z,998.06
2017-03-06T01:25:10.631Z,997.96
2017-03-06T01:30:03.546Z,998.01
2017-03-06T01:35:03.469Z,998.08
2017-03-06T01:40:03.311Z,998.07
2017-03-06T01:45:02.968Z,998.01
2017-03-06T01:50:02.899Z,997.92
2017-03-06T01:55:02.957Z,998.01
2017-03-06T02:00:03.638Z,997.93
2017-03-06T02:05:03.368Z,997.88
2017-03-06T02:10:03.438Z,997.85
2017-03-06T02:15:03.078Z,997.88
2017-03-06T02:20:02.870Z,997.82
2017-03-06T02:25:02.908Z,997.75
2017-03-06T02:30:03.543Z,997.81
2017-03-06T02:35:03.358Z,997.75
2017-03-06T02:40:03.188Z,997.77
2017-03-06T02:45:03.059Z,997.72
2017-03-06T02:50:03.096Z,997.64
2017-03-06T02:55:02.928Z,997.66
2017-03-06T03:00:02.965Z,997.66
2017-03-06T03:05:03.062Z,997.65
2017-03-06T03:10:02.959Z,997.62
2017-03-06T03:15:02.955Z,997.63
2017-03-06T03:20:02.760Z,997.64
2017-03-06T03:25:03.605Z,997.65
2017-03-06T03:30:03.330Z,997.59
2017-03-06T03:35:03.128Z,997.64
2017-03-06T03:40:03.006Z,997.64
2017-03-06T03:45:02.835Z,997.66
2017-03-06T03:50:03.648Z,997.64
2017-03-06T03:55:03.442Z,997.62
2017-03-06T04:00:03.195Z,997.59
2017-03-06T04:05:03.218Z,997.69
2017-03-06T04:10:03.214Z,997.72
2017-03-06T04:15:03.025Z,997.72
2017-03-06T04:20:02.856Z,997.75
2017-03-06T04:25:02.733Z,997.73
2017-03-06T04:30:03.659Z,997.79
2017-03-06T04:35:03.480Z,997.79
2017-03-06T04:40:03.212Z,997.81
2017-03-06T04:45:03.299Z,997.82
2017-03-06T04:50:03.246Z,997.82
2017-03-06T04:55:03.171Z,997.78
2017-03-06T05:00:02.912Z,997.8
2017-03-06T05:05:02.796Z,997.78
2017-03-06T05:10:02.731Z,997.8
2017-03-06T05:15:03.621Z,997.87
2017-03-06T05:20:03.624Z,997.85
2017-03-06T05:25:03.853Z,997.82
2017-03-06T05:30:03.735Z,997.84
2017-03-06T05:35:03.613Z,997.88
2017-03-06T05:40:03.468Z,997.92
2017-03-06T05:45:03.302Z,997.9
2017-03-06T05:50:03.322Z,997.88
2017-03-06T05:55:03.243Z,997.89
2017-03-06T06:00:03.045Z,997.87
2017-03-06T06:05:02.755Z,997.93
2017-03-06T06:10:02.845Z,997.88
2017-03-06T06:15:03.655Z,997.96
2017-03-06T06:20:03.668Z,997.89
2017-03-06T06:25:03.463Z,997.9
2017-03-06T06:30:03.339Z,997.9
2017-03-06T06:35:03.534Z,997.93
2017-03-06T06:40:03.324Z,997.95
2017-03-06T06:45:03.131Z,997.91
2017-03-06T06:50:03.147Z,997.94
2017-03-06T06:55:02.799Z,997.96
2017-03-06T07:00:03.632Z,997.91
2017-03-06T07:05:03.321Z,997.91
2017-03-06T07:10:03.224Z,997.94
2017-03-06T07:15:03.119Z,997.95
2017-03-06T07:20:02.903Z,997.94
2017-03-06T07:25:03.608Z,997.96
2017-03-06T07:30:03.484Z,997.91
2017-03-06T07:35:03.269Z,997.92
2017-03-06T07:40:03.151Z,997.96
2017-03-06T07:45:02.986Z,997.94
2017-03-06T07:50:03.002Z,997.9
2017-03-06T07:55:02.708Z,997.99
2017-03-06T08:00:02.707Z,998.01
2017-03-06T08:05:02.777Z,998.02
2017-03-06T08:10:03.593Z,998.03
2017-03-06T08:15:03.274Z,998.1
2017-03-06T08:20:03.149Z,998.1
2017-03-06T08:25:02.859Z,998.08
2017-03-06T08:30:02.811Z,998.09
2017-03-06T08:35:02.868Z,998.04
2017-03-06T08:40:02.801Z,997.99
2017-03-06T08:45:03.582Z,997.99
2017-03-06T08:50:03.447Z,997.94
2017-03-06T08:55:03.288Z,997.95
2017-03-06T09:00:02.882Z,997.98
2017-03-06T09:05:02.737Z,997.93
2017-03-06T09:10:02.819Z,997.9
2017-03-06T09:15:03.684Z,997.91
2017-03-06T09:20:03.534Z,997.95
2017-03-06T09:25:03.687Z,998.01
2017-03-06T09:30:03.628Z,998.05
2017-03-06T09:35:03.647Z,997.96
2017-03-06T09:40:03.605Z,998.03
2017-03-06T09:45:03.599Z,997.98
2017-03-06T09:50:03.570Z,997.95
2017-03-06T09:55:03.399Z,998.03
2017-03-06T10:00:03.298Z,998.03
2017-03-06T10:05:03.093Z,998.07
2017-03-06T10:10:02.967Z,998.07
2017-03-06T10:15:02.737Z,998.06
2017-03-06T10:20:03.560Z,998.15
2017-03-06T10:25:03.290Z,998.14
2017-03-06T10:30:03.107Z,998.2
2017-03-06T10:35:02.904Z,998.16
2017-03-06T10:40:03.639Z,998.25
2017-03-06T10:45:03.497Z,998.26
2017-03-06T10:50:03.436Z,998.3
2017-03-06T10:55:03.346Z,998.15
2017-03-06T11:00:03.425Z,998.22
2017-03-06T11:05:03.413Z,998.21
2017-03-06T11:10:03.502Z,998.24
2017-03-06T11:15:03.203Z,998.29
2017-03-06T11:20:02.974Z,998.33
2017-03-06T11:25:02.728Z,998.4
2017-03-06T11:30:03.558Z,998.42
2017-03-06T11:35:03.274Z,998.44
2017-03-06T11:40:03.479Z,998.37
2017-03-06T11:45:03.549Z,998.36
2017-03-06T11:50:03.409Z,998.34
2017-03-06T11:55:03.236Z,998.39
2017-03-06T12:00:03.139Z,998.39
2017-03-06T12:05:03.020Z,998.46
2017-03-06T12:10:02.833Z,998.46
2017-03-06T12:15:02.815Z,998.46
2017-03-06T12:20:03.731Z,998.42
2017-03-06T12:25:02.784Z,998.46
2017-03-06T12:30:02.778Z,998.5
2017-03-06T12:35:03.619Z,998.54
2017-03-06T12:40:03.407Z,998.52
2017-03-06T12:45:03.104Z,998.59
2017-03-06T12:50:02.759Z,998.67
2017-03-06T12:55:02.750Z,998.71
2017-03-06T13:00:03.589Z,998.78
2017-03-06T13:05:03.410Z,998.83
2017-03-06T13:10:03.230Z,998.88
2017-03-06T13:15:03.069Z,998.88
2017-03-06T13:20:02.928Z,998.99
2017-03-06T13:25:02.900Z,999
2017-03-06T13:30:03.729Z,999.07
2017-03-06T13:35:03.667Z,999.11
2017-03-06T13:40:03.652Z,999.15
2017-03-06T13:45:02.731Z,999.18
2017-03-06T13:50:03.598Z,999.17
2017-03-06T13:55:03.436Z,999.19
2017-03-06T14:00:03.576Z,999.31
2017-03-06T14:05:02.737Z,999.42
2017-03-06T14:10:03.533Z,999.39
2017-03-06T14:15:03.379Z,999.53
2017-03-06T14:20:03.282Z,999.55
2017-03-06T14:25:03.008Z,999.65
2017-03-06T14:30:03.101Z,999.63
2017-03-06T14:35:02.820Z,999.73
2017-03-06T14:40:02.963Z,999.72
2017-03-06T14:45:02.749Z,999.85
2017-03-06T14:50:02.784Z,999.92
2017-03-06T14:55:02.840Z,999.97
2017-03-06T15:00:03.678Z,999.97
2017-03-06T15:05:03.553Z,1000.04
2017-03-06T15:10:03.389Z,1000.04
2017-03-06T15:15:03.351Z,1000.21
2017-03-06T15:20:03.222Z,1000.27
2017-03-06T15:25:03.289Z,1000.32
2017-03-06T15:30:03.125Z,1000.28
2017-03-06T15:35:02.793Z,1000.33
2017-03-06T15:40:02.812Z,1000.42
2017-03-06T15:45:02.907Z,1000.54
2017-03-06T15:50:03.621Z,1000.61
2017-03-06T15:55:03.384Z,1000.7
2017-03-06T16:00:03.471Z,1000.82
2017-03-06T16:05:03.526Z,1000.85
2017-03-06T16:10:03.540Z,1000.89
2017-03-06T16:15:03.465Z,1000.99
2017-03-06T16:20:03.383Z,1001.02
2017-03-06T16:25:03.263Z,1001.19
2017-03-06T16:30:03.127Z,1001.24
2017-03-06T16:35:03.244Z,1001.28
2017-03-06T16:40:03.207Z,1001.34
2017-03-06T16:45:03.250Z,1001.46
2017-03-06T16:50:02.976Z,1001.58
2017-03-06T16:55:03.708Z,1001.69
2017-03-06T17:00:03.579Z,1001.76
2017-03-06T17:05:03.635Z,1001.79
2017-03-06T17:10:03.685Z,1001.92
2017-03-06T17:15:03.503Z,1002.01
2017-03-06T17:20:03.409Z,1002.09
2017-03-06T17:25:03.376Z,1002.15
2017-03-06T17:30:03.293Z,1002.33
2017-03-06T17:35:03.120Z,1002.37
2017-03-06T17:40:02.901Z,1002.41
2017-03-06T17:45:03.690Z,1002.54
2017-03-06T17:50:03.664Z,1002.74
2017-03-06T17:55:02.836Z,1002.92
2017-03-06T18:00:03.584Z,1002.99
2017-03-06T18:05:03.304Z,1003
2017-03-06T18:10:03.201Z,1003.1
2017-03-06T18:15:03.372Z,1003.24
2017-03-06T18:20:03.197Z,1003.29
2017-03-06T18:25:03.050Z,1003.34
2017-03-06T18:30:02.973Z,1003.42
2017-03-06T18:35:02.820Z,1003.58
2017-03-06T18:40:02.822Z,1003.7
2017-03-06T18:45:03.679Z,1003.72
2017-03-06T18:50:03.021Z,1003.79
2017-03-06T18:55:02.839Z,1003.8
2017-03-06T19:00:03.602Z,1003.92
2017-03-06T19:05:03.606Z,1003.99
2017-03-06T19:10:03.391Z,1004.1
2017-03-06T19:15:03.395Z,1004.23
2017-03-06T19:20:03.204Z,1004.31
2017-03-06T19:25:02.999Z,1004.38
2017-03-06T19:30:02.887Z,1004.45
2017-03-06T19:35:02.721Z,1004.55
2017-03-06T19:40:03.655Z,1004.64
2017-03-06T19:45:03.568Z,1004.68
2017-03-06T19:50:03.452Z,1004.76
2017-03-06T19:55:03.485Z,1004.83
2017-03-06T20:00:03.195Z,1004.98
2017-03-06T20:05:03.047Z,1005.02
2017-03-06T20:10:03.102Z,1005.08
2017-03-06T20:15:03.138Z,1005.12
2017-03-06T20:20:02.920Z,1005.22
2017-03-06T20:25:02.915Z,1005.24
2017-03-06T20:30:02.827Z,1005.29
2017-03-06T20:35:02.718Z,1005.3
2017-03-06T20:40:03.492Z,1005.38
2017-03-06T20:45:03.218Z,1005.49
2017-03-06T20:50:03.221Z,1005.55
2017-03-06T20:55:03.039Z,1005.65
2017-03-06T21:00:02.734Z,1005.68
2017-03-06T21:05:02.732Z,1005.81
2017-03-06T21:10:03.620Z,1005.79
2017-03-06T21:15:03.391Z,1005.9
2017-03-06T21:20:03.411Z,1005.96
2017-03-06T21:25:03.173Z,1006.03
2017-03-06T21:30:02.952Z,1006.02
2017-03-06T21:35:02.779Z,1006.1
2017-03-06T21:40:02.806Z,1006.13
2017-03-06T21:45:03.714Z,1006.2
2017-03-06T21:50:03.497Z,1006.29
2017-03-06T21:55:03.364Z,1006.37
2017-03-06T22:00:03.366Z,1006.38
2017-03-06T22:05:03.332Z,1006.41
2017-03-06T22:10:03.183Z,1006.48
2017-03-06T22:15:03.505Z,1006.55
2017-03-06T22:20:03.315Z,1006.56
2017-03-06T22:25:03.495Z,1006.63
2017-03-06T22:30:02.673Z,1006.72
2017-03-06T22:35:03.391Z,1006.78
2017-03-06T22:40:03.205Z,1006.78
2017-03-06T22:45:03.185Z,1006.77
2017-03-06T22:50:02.956Z,1006.89
2017-03-06T22:55:02.874Z,1006.91
2017-03-06T23:00:02.843Z,1006.87
2017-03-06T23:05:03.590Z,1006.98
2017-03-06T23:10:03.603Z,1007.09
2017-03-06T23:15:03.540Z,1007.13
2017-03-06T23:20:03.583Z,1007.25
2017-03-06T23:25:03.549Z,1007.32
2017-03-06T23:30:03.314Z,1007.39
2017-03-06T23:35:03.133Z,1007.43
2017-03-06T23:40:03.068Z,1007.48
2017-03-06T23:45:03.069Z,1007.39
2017-03-06T23:50:02.917Z,1007.56
2017-03-06T23:55:03.602Z,1007.61
